• Join FlightAware (Why Join?)
  • Login
  • US Flag 
10:30AM EDT


 

Airport Tracker/Info


-or-


 

Live Flight TrackerFlight Track Log ✈ N449ND ✈ 23-Feb-2014 ✈ KFPR - KFPR

Flight Track Log - Related Links

Times and Time Zones

All times are in EST time to prevent confusion due to time zone crossing. See the N449ND flight status page for this flight to view local times or setup timezone preferences in your user account.

Time Position Orientation Groundspeed Altitude Reporting Facility
EST Latitude Longitude Course Direction KTS MPH feet Rate Location/Type
08:41PM 27.4794 -80.3542 159° South 99 114 500  Level Miami Center
08:42PM 27.4608 -80.3464 160° South 83 96 3,000 480 Climbing Miami Center
08:43PM 27.4442 -80.3506 193° South 70 81 1,500 -600 Descending Miami Center
08:44PM 27.4233 -80.3500 179° South 70 81 1,900 420 Climbing Miami Center
08:45PM 27.4916 -80.3701 159° South  Level FlightAware Approximate
08:45PM 27.4103 -80.3636 223° Southwest 65 75 2,400  Level Miami Center
08:46PM 27.4904 -80.3696 159° South  Level FlightAware Approximate
08:46PM 27.4078 -80.3869 263° West 74 85 2,800  Level Miami Center
08:47PM 27.4050 -80.4103 262° West 80 92 3,100 60 Climbing Miami Center
08:48PM 27.4022 -80.4358 263° West 88 101 3,000  Descending Miami Center
08:49PM 27.3997 -80.4617 264° West 88 101 3,100  Climbing Miami Center
08:50PM 27.3989 -80.4897 268° West 83 96 3,000  Descending Miami Center
08:51PM 27.3983 -80.5153 269° West 83 96 3,100 -120 Climbing Miami Center
08:52PM 27.4103 -80.5322 308° West 76 87 2,800 -420 Descending Miami Center
08:53PM 27.4353 -80.5328 359° North 77 89 2,300 -300 Descending Miami Center
08:54PM 27.4667 -80.5339 358° North 91 105 2,200 -120 Descending Miami Center
08:55PM 27.4897 -80.5322 North 91 105 2,100 -120 Descending Miami Center
08:56PM 27.4989 -80.4997 72° East 85 98 2,000 -240 Descending Miami Center
08:57PM 27.4975 -80.4669 93° East 106 122 1,700 -420 Descending Miami Center
08:58PM 27.4983 -80.4389 88° East 106 122 1,200 -300 Descending Miami Center
08:59PM 27.4969 -80.4061 93° East 106 122 1,100 -120 Descending Miami Center